createdAt,value
2018-02-23T00:01:50.189Z,-2.80
2018-02-23T00:04:18.693Z,-2.70
2018-02-23T00:06:47.260Z,-2.90
2018-02-23T00:09:16.453Z,-3.00
2018-02-23T00:11:45.620Z,-2.90
2018-02-23T00:14:14.024Z,-2.90
2018-02-23T00:16:42.463Z,-2.90
2018-02-23T00:19:11.452Z,-2.90
2018-02-23T00:21:39.877Z,-2.90
2018-02-23T00:24:08.535Z,-2.90
2018-02-23T00:26:37.188Z,-3.00
2018-02-23T00:29:05.608Z,-3.10
2018-02-23T00:31:34.004Z,-3.00
2018-02-23T00:34:03.010Z,-2.80
2018-02-23T00:36:32.177Z,-3.10
2018-02-23T00:39:00.597Z,-3.10
2018-02-23T00:41:29.000Z,-2.90
2018-02-23T00:43:57.396Z,-2.80
2018-02-23T00:46:25.806Z,-2.90
2018-02-23T00:48:54.979Z,-2.90
2018-02-23T00:51:23.402Z,-2.90
2018-02-23T00:53:51.841Z,-2.90
2018-02-23T00:56:20.239Z,-3.00
2018-02-23T00:58:49.398Z,-2.90
2018-02-23T01:01:17.824Z,-3.00
2018-02-23T01:03:47.007Z,-3.10
2018-02-23T01:06:16.162Z,-3.00
2018-02-23T01:08:44.605Z,-3.00
2018-02-23T01:11:13.000Z,-2.90
2018-02-23T01:13:41.452Z,-2.90
2018-02-23T01:16:10.617Z,-3.00
2018-02-23T01:18:39.024Z,-3.10
2018-02-23T01:21:08.883Z,-3.20
2018-02-23T01:23:37.472Z,-3.20
2018-02-23T01:26:06.505Z,-3.20
2018-02-23T01:28:36.058Z,-2.90
2018-02-23T01:31:04.467Z,-3.00
2018-02-23T01:33:32.904Z,-2.90
2018-02-23T01:36:01.294Z,-2.90
2018-02-23T01:38:29.720Z,-3.10
2018-02-23T01:40:58.880Z,-3.00
2018-02-23T01:43:27.287Z,-3.10
2018-02-23T01:45:56.140Z,-3.20
2018-02-23T01:48:24.530Z,-3.20
2018-02-23T01:51:00.813Z,-3.20
2018-02-23T01:53:29.211Z,-3.20
2018-02-23T01:55:58.378Z,-3.40
2018-02-23T01:58:26.601Z,-3.40
2018-02-23T02:00:55.017Z,-3.40
2018-02-23T02:03:23.432Z,-3.70
2018-02-23T02:05:52.609Z,-3.70
2018-02-23T02:08:21.022Z,-3.70
2018-02-23T02:10:49.512Z,-3.60
2018-02-23T02:13:17.943Z,-3.50
2018-02-23T02:15:46.330Z,-3.50
2018-02-23T02:18:14.734Z,-3.70
2018-02-23T02:20:42.885Z,-3.70
2018-02-23T02:23:12.060Z,-3.50
2018-02-23T02:25:40.476Z,-3.50
2018-02-23T02:28:08.884Z,-3.40
2018-02-23T02:30:37.302Z,-3.30
2018-02-23T02:33:05.706Z,-3.40
2018-02-23T02:35:34.913Z,-3.70
2018-02-23T02:38:14.080Z,-3.50
2018-02-23T02:40:42.519Z,-3.60
2018-02-23T02:43:11.878Z,-3.60
2018-02-23T02:45:40.297Z,-3.60
2018-02-23T02:48:08.714Z,-3.50
2018-02-23T02:50:37.113Z,-3.60
2018-02-23T02:53:05.633Z,-3.60
2018-02-23T02:55:34.061Z,-3.70
2018-02-23T02:58:02.484Z,-3.70
2018-02-23T03:00:30.892Z,-3.70
2018-02-23T03:02:59.325Z,-3.60
2018-02-23T03:05:28.493Z,-4.00
2018-02-23T03:07:56.897Z,-4.00
2018-02-23T03:10:26.079Z,-4.00
2018-02-23T03:12:54.480Z,-4.10
2018-02-23T03:15:23.661Z,-3.90
2018-02-23T03:17:52.064Z,-3.90
2018-02-23T03:20:20.481Z,-3.90
2018-02-23T03:22:48.884Z,-4.00
2018-02-23T03:25:17.285Z,-3.80
2018-02-23T03:27:46.469Z,-3.60
2018-02-23T03:30:14.870Z,-3.60
2018-02-23T03:32:44.217Z,-3.40
2018-02-23T03:35:12.630Z,-3.50
2018-02-23T03:37:41.793Z,-3.60
2018-02-23T03:40:10.223Z,-3.60
2018-02-23T03:42:38.612Z,-3.60
2018-02-23T03:45:07.501Z,-3.60
2018-02-23T03:47:36.548Z,-3.60
2018-02-23T03:50:04.294Z,-3.70
2018-02-23T03:52:32.701Z,-3.70
2018-02-23T03:55:01.136Z,-4.00
2018-02-23T03:57:29.542Z,-4.00
2018-02-23T03:59:57.954Z,-4.20
2018-02-23T04:02:27.137Z,-4.40
2018-02-23T04:04:56.313Z,-4.60
2018-02-23T04:07:24.745Z,-4.60
2018-02-23T04:09:53.154Z,-4.50
2018-02-23T04:12:21.580Z,-4.70
2018-02-23T04:14:50.758Z,-4.70
2018-02-23T04:17:19.173Z,-4.80
2018-02-23T04:19:47.596Z,-4.50
2018-02-23T04:22:16.016Z,-4.20
2018-02-23T04:24:45.196Z,-4.20
2018-02-23T04:27:13.591Z,-4.20
2018-02-23T04:29:42.774Z,-4.60
2018-02-23T04:32:11.206Z,-4.60
2018-02-23T04:34:40.542Z,-4.60
2018-02-23T04:37:08.956Z,-4.60
2018-02-23T04:39:37.165Z,-4.80
2018-02-23T04:42:05.701Z,-4.90
2018-02-23T04:44:34.871Z,-4.40
2018-02-23T04:47:03.296Z,-4.40
2018-02-23T04:49:31.507Z,-4.50
2018-02-23T04:51:59.909Z,-4.60
2018-02-23T04:54:28.316Z,-4.70
2018-02-23T04:56:56.721Z,-4.50
2018-02-23T04:59:25.139Z,-4.30
2018-02-23T05:01:53.550Z,-4.40
2018-02-23T05:04:21.974Z,-4.30
2018-02-23T05:06:50.381Z,-4.30
2018-02-23T05:09:18.822Z,-4.50
2018-02-23T05:11:47.226Z,-4.40
2018-02-23T05:14:15.673Z,-4.40
2018-02-23T05:16:43.916Z,-4.50
2018-02-23T05:19:12.897Z,-4.60
2018-02-23T05:21:41.912Z,-4.70
2018-02-23T05:24:10.320Z,-4.70
2018-02-23T05:26:38.728Z,-4.80
2018-02-23T05:29:07.863Z,-4.70
2018-02-23T05:31:37.226Z,-4.60
2018-02-23T05:34:05.685Z,-4.50
2018-02-23T05:36:34.118Z,-4.50
2018-02-23T05:39:02.537Z,-4.70
2018-02-23T05:41:30.951Z,-4.90
2018-02-23T05:43:59.373Z,-4.70
2018-02-23T05:46:27.786Z,-5.00
2018-02-23T05:48:56.194Z,-5.00
2018-02-23T05:51:25.406Z,-4.90
2018-02-23T05:53:54.571Z,-4.90
2018-02-23T05:56:23.001Z,-4.90
2018-02-23T05:58:51.419Z,-4.80
2018-02-23T06:01:20.137Z,-4.80
2018-02-23T06:03:49.310Z,-4.80
2018-02-23T06:06:17.728Z,-4.80
2018-02-23T06:08:46.148Z,-5.00
2018-02-23T06:11:14.842Z,-4.90
2018-02-23T06:13:43.530Z,-4.80
2018-02-23T06:16:17.414Z,-4.70
2018-02-23T06:18:51.388Z,-4.80
2018-02-23T06:21:19.818Z,-4.80
2018-02-23T06:23:48.243Z,-4.80
2018-02-23T06:26:16.924Z,-4.90
2018-02-23T06:28:45.623Z,-5.00
2018-02-23T06:31:15.071Z,-4.80
2018-02-23T06:33:43.525Z,-4.80
2018-02-23T06:36:11.940Z,-4.80
2018-02-23T06:38:40.634Z,-4.90
2018-02-23T06:41:09.067Z,-4.90
2018-02-23T06:43:38.119Z,-5.20
2018-02-23T06:46:06.825Z,-5.20
2018-02-23T06:48:36.732Z,-5.50
2018-02-23T06:51:05.429Z,-5.60
2018-02-23T06:53:34.701Z,-5.60
2018-02-23T06:56:03.396Z,-5.50
2018-02-23T06:58:31.807Z,-5.40
2018-02-23T07:01:00.516Z,-5.40
2018-02-23T07:03:29.000Z,-5.50
2018-02-23T07:05:57.666Z,-5.50
2018-02-23T07:08:26.092Z,-5.40
2018-02-23T07:10:55.264Z,-4.90
2018-02-23T07:13:23.664Z,-4.90
2018-02-23T07:15:52.856Z,-4.80
2018-02-23T07:18:22.043Z,-4.70
2018-02-23T07:20:50.744Z,-4.70
2018-02-23T07:23:19.938Z,-4.40
2018-02-23T07:25:49.125Z,-4.50
2018-02-23T07:28:18.314Z,-4.60
2018-02-23T07:30:47.547Z,-4.80
2018-02-23T07:33:15.949Z,-4.80
2018-02-23T07:35:44.369Z,-4.70
2018-02-23T07:38:12.785Z,-4.40
2018-02-23T07:40:41.184Z,-4.40
2018-02-23T07:43:09.605Z,-4.20
2018-02-23T07:45:38.001Z,-4.40
2018-02-23T07:48:06.651Z,-4.60
2018-02-23T07:50:34.891Z,-4.80
2018-02-23T07:53:03.107Z,-4.60
2018-02-23T07:55:31.533Z,-4.80
2018-02-23T07:57:59.959Z,-4.80
2018-02-23T08:00:28.192Z,-4.70
2018-02-23T08:02:56.432Z,-4.90
2018-02-23T08:05:25.601Z,-4.60
2018-02-23T08:07:54.044Z,-4.60
2018-02-23T08:10:23.382Z,-4.60
2018-02-23T08:12:51.781Z,-4.70
2018-02-23T08:15:20.970Z,-4.60
2018-02-23T08:17:49.665Z,-4.60
2018-02-23T08:20:18.846Z,-4.50
2018-02-23T08:22:47.433Z,-4.60
2018-02-23T08:25:16.614Z,-4.80
2018-02-23T08:27:45.034Z,-4.80
2018-02-23T08:30:13.459Z,-4.80
2018-02-23T08:32:42.822Z,-4.70
2018-02-23T08:35:11.240Z,-4.70
2018-02-23T08:37:39.688Z,-4.70
2018-02-23T08:40:08.091Z,-4.60
2018-02-23T08:42:37.151Z,-4.40
2018-02-23T08:45:05.869Z,-4.50
2018-02-23T08:47:34.294Z,-4.50
2018-02-23T08:50:03.474Z,-4.30
2018-02-23T08:52:31.864Z,-4.30
2018-02-23T08:55:01.058Z,-4.20
2018-02-23T08:57:30.223Z,-4.20
2018-02-23T08:59:58.639Z,-4.30
2018-02-23T09:02:27.635Z,-4.40
2018-02-23T09:04:56.321Z,-4.50
2018-02-23T09:07:24.740Z,-4.50
2018-02-23T09:09:53.152Z,-4.50
2018-02-23T09:12:21.545Z,-4.60
2018-02-23T09:14:50.727Z,-4.70
2018-02-23T09:17:19.131Z,-4.70
2018-02-23T09:19:47.839Z,-4.50
2018-02-23T09:22:16.244Z,-4.20
2018-02-23T09:24:44.648Z,-4.30
2018-02-23T09:27:13.828Z,-4.20
2018-02-23T09:29:42.231Z,-4.20
2018-02-23T09:32:20.728Z,-4.10
2018-02-23T09:34:49.123Z,-4.20
2018-02-23T09:37:18.303Z,-4.30
2018-02-23T09:39:46.719Z,-4.30
2018-02-23T09:42:15.120Z,-4.10
2018-02-23T09:44:43.512Z,-4.20
2018-02-23T09:47:11.930Z,-4.00
2018-02-23T09:49:41.118Z,-3.90
2018-02-23T09:52:09.632Z,-3.90
2018-02-23T09:54:38.462Z,-4.10
2018-02-23T09:57:07.318Z,-4.00
2018-02-23T09:59:36.065Z,-3.80
2018-02-23T10:02:05.250Z,-3.90
2018-02-23T10:04:33.683Z,-3.90
2018-02-23T10:07:02.079Z,-3.90
2018-02-23T10:09:30.492Z,-3.90
2018-02-23T10:11:58.915Z,-3.90
2018-02-23T10:14:27.137Z,-4.00
2018-02-23T10:16:55.542Z,-3.90
2018-02-23T10:19:24.713Z,-3.60
2018-02-23T10:21:53.123Z,-3.60
2018-02-23T10:24:21.543Z,-3.60
2018-02-23T10:26:49.952Z,-3.50
2018-02-23T10:29:18.361Z,-3.60
2018-02-23T10:31:46.773Z,-3.50
2018-02-23T10:34:15.206Z,-3.40
2018-02-23T10:36:44.184Z,-3.50
2018-02-23T10:39:13.178Z,-3.40
2018-02-23T10:41:42.176Z,-3.30
2018-02-23T10:44:11.177Z,-3.30
2018-02-23T10:46:40.350Z,-3.30
2018-02-23T10:49:08.561Z,-3.30
2018-02-23T10:51:36.795Z,-3.40
2018-02-23T10:54:05.026Z,-3.30
2018-02-23T10:56:33.454Z,-3.20
2018-02-23T10:59:01.667Z,-3.20
2018-02-23T11:01:29.896Z,-2.90
2018-02-23T11:03:58.290Z,-3.00
2018-02-23T11:06:27.460Z,-2.80
2018-02-23T11:08:55.875Z,-2.80
2018-02-23T11:11:25.030Z,-2.70
2018-02-23T11:13:53.460Z,-2.80
2018-02-23T11:16:21.889Z,-2.60
2018-02-23T11:18:50.290Z,-2.70
2018-02-23T11:21:19.465Z,-2.40
2018-02-23T11:23:47.885Z,-2.40
2018-02-23T11:26:16.289Z,-2.30
2018-02-23T11:28:44.693Z,-2.30
2018-02-23T11:31:13.102Z,-2.20
2018-02-23T11:33:42.281Z,-1.90
2018-02-23T11:36:10.695Z,-1.90
2018-02-23T11:38:39.867Z,-1.60
2018-02-23T11:41:08.285Z,-1.60
2018-02-23T11:43:36.705Z,-1.60
2018-02-23T11:46:05.142Z,-1.60
2018-02-23T13:10:31.490Z,-1.60
2018-02-23T13:12:59.874Z,-1.50
2018-02-23T13:15:28.083Z,-1.40
2018-02-23T13:17:57.236Z,-1.30
2018-02-23T13:20:25.633Z,-1.30
2018-02-23T13:22:54.007Z,-1.00
2018-02-23T13:25:22.406Z,-0.90
2018-02-23T13:27:56.279Z,-0.80
2018-02-23T13:30:24.501Z,-0.70
2018-02-23T13:32:53.479Z,-0.60
2018-02-23T13:35:21.678Z,-0.50
2018-02-23T13:37:50.078Z,-0.60
2018-02-23T13:40:18.275Z,-0.60
2018-02-23T13:42:46.485Z,-0.70
2018-02-23T13:45:15.629Z,-0.70
2018-02-23T13:47:44.040Z,-0.70
2018-02-23T13:50:12.446Z,-0.60
2018-02-23T13:52:40.647Z,-0.80
2018-02-23T13:55:09.051Z,-1.00
2018-02-23T13:57:37.956Z,-1.00
2018-02-23T14:00:07.065Z,-0.90
2018-02-23T14:02:36.775Z,-0.80
2018-02-23T14:05:05.294Z,-0.80
2018-02-23T14:07:33.505Z,-0.90
2018-02-23T14:10:01.894Z,-0.70
2018-02-23T14:12:30.873Z,-0.70
2018-02-23T14:14:58.920Z,-0.70
2018-02-23T14:17:27.306Z,-0.70
2018-02-23T14:19:55.710Z,-0.70
2018-02-23T14:22:24.102Z,-0.60
2018-02-23T14:24:53.264Z,-0.70
2018-02-23T14:27:21.676Z,-0.70
2018-02-23T14:29:50.817Z,-0.80
2018-02-23T14:32:19.973Z,-0.90
2018-02-23T14:34:49.142Z,-1.00
2018-02-23T14:37:17.522Z,-1.00
2018-02-23T14:39:46.812Z,-1.10
2018-02-23T14:42:15.302Z,-1.10
2018-02-23T14:44:43.766Z,-0.80
2018-02-23T14:47:13.102Z,-0.90
2018-02-23T14:49:52.863Z,-0.90
2018-02-23T14:52:21.346Z,-0.80
2018-02-23T14:54:50.589Z,-0.80
2018-02-23T14:57:21.252Z,-0.80
2018-02-23T14:59:50.955Z,-0.90
2018-02-23T15:02:19.649Z,-0.90
2018-02-23T15:04:48.106Z,-0.90
2018-02-23T15:07:17.376Z,-1.10
2018-02-23T15:09:46.710Z,-1.10
2018-02-23T15:12:14.871Z,-1.10
2018-02-23T15:14:50.033Z,-1.00
2018-02-23T15:17:18.532Z,-1.10
2018-02-23T15:19:47.027Z,-1.20
2018-02-23T15:22:16.287Z,-1.20
2018-02-23T15:24:44.774Z,-1.20
2018-02-23T15:27:13.043Z,-1.00
2018-02-23T15:29:42.299Z,-1.20
2018-02-23T15:32:22.803Z,-1.20
2018-02-23T15:34:51.303Z,-1.10
2018-02-23T15:37:19.860Z,-1.20
2018-02-23T15:39:51.218Z,-1.20
2018-02-23T15:42:19.687Z,-1.30
2018-02-23T15:44:48.243Z,-1.30
2018-02-23T15:47:16.674Z,-1.20
2018-02-23T15:49:51.556Z,-1.10
2018-02-23T15:52:19.871Z,-1.10
2018-02-23T15:54:48.157Z,-1.20
2018-02-23T15:57:18.694Z,-1.00
2018-02-23T15:59:47.781Z,-1.00
2018-02-23T16:02:16.952Z,-1.00
2018-02-23T16:04:46.217Z,-1.10
2018-02-23T16:07:15.811Z,-1.10
2018-02-23T16:09:44.333Z,-1.30
2018-02-23T16:12:13.464Z,-1.30
2018-02-23T16:14:42.709Z,-1.30
2018-02-23T16:17:10.999Z,-1.40
2018-02-23T16:19:39.306Z,-1.50
2018-02-23T16:22:07.797Z,-1.40
2018-02-23T16:24:37.040Z,-1.50
2018-02-23T16:27:06.341Z,-1.50
2018-02-23T16:29:34.819Z,-1.40
2018-02-23T16:32:04.162Z,-1.30
2018-02-23T16:34:32.673Z,-1.30
2018-02-23T16:37:01.128Z,-1.30
2018-02-23T16:39:32.262Z,-1.50
2018-02-23T16:42:00.764Z,-1.50
2018-02-23T16:44:32.494Z,-1.30
2018-02-23T16:47:01.004Z,-1.40
2018-02-23T16:49:30.248Z,-1.30
2018-02-23T16:51:59.590Z,-1.30
2018-02-23T16:54:28.839Z,-1.40
2018-02-23T16:56:57.332Z,-1.40
2018-02-23T16:59:25.897Z,-1.50
2018-02-23T17:01:55.183Z,-1.50
2018-02-23T17:04:23.716Z,-1.50
2018-02-23T17:06:52.232Z,-1.40
2018-02-23T17:09:21.616Z,-1.50
2018-02-23T17:11:50.116Z,-1.50
2018-02-23T17:14:19.529Z,-1.60
2018-02-23T17:16:48.856Z,-1.60
2018-02-23T17:19:18.289Z,-1.70
2018-02-23T17:21:46.796Z,-1.60
2018-02-23T17:24:16.656Z,-1.40
2018-02-23T17:26:45.176Z,-1.50
2018-02-23T17:29:13.655Z,-1.60
2018-02-23T17:31:49.187Z,-1.70
2018-02-23T17:34:17.692Z,-1.60
2018-02-23T17:36:47.694Z,-1.50
2018-02-23T17:39:16.215Z,-1.50
2018-02-23T17:41:46.246Z,-1.70
2018-02-23T17:44:17.163Z,-2.50
2018-02-23T17:46:47.362Z,-1.80
2018-02-23T17:49:16.936Z,-1.90
2018-02-23T17:54:20.768Z,-1.90
2018-02-23T17:56:49.282Z,-1.90
2018-02-23T17:59:18.417Z,-1.90
2018-02-23T18:01:47.076Z,-1.90
2018-02-23T18:04:16.424Z,-1.60
2018-02-23T18:06:44.927Z,-1.60
2018-02-23T18:09:14.026Z,-1.60
2018-02-23T18:11:43.280Z,-1.70
2018-02-23T18:14:11.730Z,-1.70
2018-02-23T18:16:40.981Z,-2.00
2018-02-23T18:19:10.196Z,-1.90
2018-02-23T18:21:39.283Z,-2.00
2018-02-23T18:24:08.494Z,-1.80
2018-02-23T18:26:37.782Z,-1.70
2018-02-23T18:29:06.320Z,-1.90
2018-02-23T18:31:34.822Z,-1.80
2018-02-23T18:34:03.292Z,-1.80
2018-02-23T18:36:31.856Z,-1.80
2018-02-23T18:39:00.407Z,-1.90
2018-02-23T18:44:04.362Z,-2.00
2018-02-23T18:46:34.558Z,-1.90
2018-02-23T18:49:03.126Z,-2.00
2018-02-23T18:51:32.410Z,-1.80
2018-02-23T18:54:01.590Z,-1.90
2018-02-23T18:56:30.175Z,-1.90
2018-02-23T18:58:59.420Z,-2.00
2018-02-23T19:01:30.677Z,-2.10
2018-02-23T19:03:59.470Z,-2.20
2018-02-23T19:06:31.419Z,-2.20
2018-02-23T19:09:01.618Z,-2.00
2018-02-23T19:11:30.138Z,-2.00
2018-02-23T19:13:59.228Z,-1.90
2018-02-23T19:16:27.527Z,-1.90
2018-02-23T19:18:56.947Z,-2.00
2018-02-23T19:21:26.023Z,-2.00
2018-02-23T19:23:55.226Z,-2.10
2018-02-23T19:26:23.704Z,-2.10
2018-02-23T19:28:52.156Z,-2.10
2018-02-23T19:31:21.407Z,-2.20
2018-02-23T19:33:49.903Z,-2.30
2018-02-23T19:36:18.398Z,-2.10
2018-02-23T19:38:47.491Z,-2.40
2018-02-23T19:41:19.425Z,-2.50
2018-02-23T19:43:47.869Z,-2.50
2018-02-23T19:46:16.351Z,-2.50
2018-02-23T19:48:44.851Z,-2.50
2018-02-23T19:51:13.343Z,-2.60
2018-02-23T19:53:42.619Z,-2.40
2018-02-23T19:56:11.104Z,-2.40
2018-02-23T19:58:39.595Z,-2.30
2018-02-23T20:01:11.082Z,-2.20
2018-02-23T20:03:39.559Z,-2.30
2018-02-23T20:06:09.648Z,-2.30
2018-02-23T20:08:38.768Z,-2.30
2018-02-23T20:11:07.683Z,-2.50
2018-02-23T20:13:36.802Z,-2.60
2018-02-23T20:16:05.268Z,-2.40
2018-02-23T20:18:33.793Z,-2.50
2018-02-23T20:21:02.258Z,-2.50
2018-02-23T20:23:30.761Z,-2.40
2018-02-23T20:25:59.212Z,-2.50
2018-02-23T20:28:27.703Z,-2.40
2018-02-23T20:30:56.138Z,-2.30
2018-02-23T20:33:24.573Z,-2.30
2018-02-23T20:35:52.722Z,-2.40
2018-02-23T20:38:21.162Z,-2.40
2018-02-23T20:40:49.629Z,-2.50
2018-02-23T20:43:18.122Z,-2.40
2018-02-23T20:45:47.342Z,-2.40
2018-02-23T20:48:16.568Z,-2.40
2018-02-23T20:50:45.787Z,-2.50
2018-02-23T20:53:14.270Z,-2.50
2018-02-23T20:55:42.393Z,-2.50
2018-02-23T20:58:11.643Z,-2.60
2018-02-23T21:00:40.180Z,-2.60
2018-02-23T21:03:09.372Z,-2.80
2018-02-23T21:05:38.446Z,-3.00
2018-02-23T21:08:06.944Z,-2.90
2018-02-23T21:10:35.400Z,-2.90
2018-02-23T21:13:03.848Z,-2.70
2018-02-23T21:15:31.946Z,-2.70
2018-02-23T21:17:59.745Z,-2.70
2018-02-23T21:20:28.187Z,-2.70
2018-02-23T21:22:57.395Z,-2.80
2018-02-23T21:25:26.624Z,-3.00
2018-02-23T21:27:56.967Z,-3.00
2018-02-23T21:30:25.424Z,-3.20
2018-02-23T21:32:53.538Z,-3.00
2018-02-23T21:35:21.994Z,-3.00
2018-02-23T21:37:52.955Z,-2.90
2018-02-23T21:40:21.840Z,-3.10
2018-02-23T21:42:50.322Z,-3.10
2018-02-23T21:45:18.771Z,-3.10
2018-02-23T21:47:47.218Z,-3.20
2018-02-23T21:50:15.742Z,-3.10
2018-02-23T21:52:44.276Z,-3.00
2018-02-23T21:55:12.919Z,-2.90
2018-02-23T21:57:41.150Z,-3.00
2018-02-23T22:00:09.394Z,-2.90
2018-02-23T22:02:38.044Z,-2.90
2018-02-23T22:05:06.879Z,-2.70
2018-02-23T22:07:35.197Z,-3.00
2018-02-23T22:10:03.326Z,-3.20
2018-02-23T22:12:31.479Z,-3.40
2018-02-23T22:15:00.003Z,-3.20
2018-02-23T22:17:28.458Z,-3.20
2018-02-23T22:19:56.899Z,-3.30
2018-02-23T22:22:25.317Z,-3.30
2018-02-23T22:24:53.594Z,-3.20
2018-02-23T22:27:22.099Z,-3.30
2018-02-23T22:29:50.592Z,-3.20
2018-02-23T22:32:18.875Z,-3.30
2018-02-23T22:34:47.327Z,-3.20
2018-02-23T22:37:15.820Z,-3.40
2018-02-23T22:39:44.143Z,-3.20
2018-02-23T22:42:12.581Z,-3.10
2018-02-23T22:44:41.059Z,-3.10
2018-02-23T22:47:09.505Z,-3.30
2018-02-23T22:49:38.719Z,-3.20
2018-02-23T22:54:40.589Z,-3.10
2018-02-23T22:57:09.512Z,-3.30
2018-02-23T22:59:38.586Z,-3.30
2018-02-23T23:02:08.042Z,-3.30
2018-02-23T23:04:37.083Z,-3.10
2018-02-23T23:07:11.380Z,-3.10
2018-02-23T23:09:39.848Z,-3.30
2018-02-23T23:12:08.849Z,-3.30
2018-02-23T23:14:37.486Z,-3.30
2018-02-23T23:17:06.187Z,-3.30
2018-02-23T23:19:34.657Z,-3.20
2018-02-23T23:22:03.125Z,-3.20
2018-02-23T23:24:31.592Z,-3.30
2018-02-23T23:27:00.092Z,-3.40
2018-02-23T23:29:28.522Z,-3.50
2018-02-23T23:31:56.934Z,-3.50
2018-02-23T23:34:25.361Z,-3.50
2018-02-23T23:36:53.776Z,-3.50
2018-02-23T23:39:22.347Z,-3.40
2018-02-23T23:41:50.787Z,-3.50
2018-02-23T23:44:19.247Z,-3.50
2018-02-23T23:46:49.388Z,-3.80
2018-02-23T23:49:17.845Z,-3.70
2018-02-23T23:51:46.279Z,-3.40
2018-02-23T23:54:14.710Z,-3.30
2018-02-23T23:56:43.150Z,-3.30
2018-02-23T23:59:11.593Z,-3.40
